createdAt,value
2023-05-24T00:01:10.558Z,12.38
2023-05-24T00:04:16.288Z,15.05
2023-05-24T00:07:21.657Z,11.60
2023-05-24T00:10:26.931Z,6.55
2023-05-24T00:13:32.483Z,13.95
2023-05-24T00:16:38.025Z,8.93
2023-05-24T00:19:43.860Z,6.97
2023-05-24T00:22:49.366Z,10.05
2023-05-24T00:25:55.101Z,9.85
2023-05-24T00:29:00.531Z,8.68
2023-05-24T00:32:06.620Z,13.30
2023-05-24T00:35:11.896Z,12.07
2023-05-24T00:38:17.656Z,12.43
2023-05-24T00:41:23.296Z,15.00
2023-05-24T00:44:29.229Z,11.20
2023-05-24T00:47:35.047Z,13.50
2023-05-24T00:50:42.123Z,11.32
2023-05-24T00:53:49.202Z,12.75
2023-05-24T00:56:57.432Z,19.83
2023-05-24T01:00:06.232Z,16.98
2023-05-24T01:03:11.924Z,14.43
2023-05-24T01:06:18.108Z,13.25
2023-05-24T01:09:34.773Z,16.00
2023-05-24T01:12:53.988Z,20.20
2023-05-24T01:16:15.862Z,13.57
2023-05-24T01:19:45.095Z,11.88
2023-05-24T01:23:27.132Z,9.98
2023-05-24T01:26:40.592Z,8.90
2023-05-24T01:29:53.685Z,11.00
2023-05-24T01:32:59.089Z,12.43
2023-05-24T01:36:05.069Z,10.55
2023-05-24T01:39:11.671Z,10.07
2023-05-24T01:42:25.560Z,9.68
2023-05-24T01:45:59.937Z,12.68
2023-05-24T01:49:23.713Z,13.40
2023-05-24T01:52:34.106Z,12.35
2023-05-24T01:55:41.349Z,12.82
2023-05-24T01:58:48.064Z,11.43
2023-05-24T02:01:54.194Z,10.55
2023-05-24T02:05:00.070Z,14.68
2023-05-24T02:08:06.092Z,12.18
2023-05-24T02:11:11.327Z,15.95
2023-05-24T02:14:20.177Z,12.27
2023-05-24T02:17:27.125Z,16.70
2023-05-24T02:20:37.551Z,15.00
2023-05-24T02:23:43.573Z,15.60
2023-05-24T02:26:49.372Z,16.45
2023-05-24T02:29:55.021Z,12.70
2023-05-24T02:33:01.044Z,14.20
2023-05-24T02:36:06.765Z,22.27
2023-05-24T02:39:12.370Z,19.92
2023-05-24T02:42:17.798Z,17.48
2023-05-24T02:45:23.381Z,18.92
2023-05-24T02:48:28.931Z,18.33
2023-05-24T02:51:34.529Z,19.80
2023-05-24T02:54:40.145Z,21.40
2023-05-24T02:57:45.824Z,17.73
2023-05-24T03:00:51.508Z,25.60
2023-05-24T03:03:59.292Z,24.13
2023-05-24T03:07:05.017Z,20.75
2023-05-24T03:10:11.553Z,21.50
2023-05-24T03:13:17.701Z,25.52
2023-05-24T03:16:23.088Z,21.00
2023-05-24T03:19:28.385Z,23.83
2023-05-24T03:22:35.560Z,27.70
2023-05-24T03:25:41.875Z,25.95
2023-05-24T03:28:48.215Z,21.17
2023-05-24T03:31:54.375Z,19.85
2023-05-24T03:35:01.822Z,23.83
2023-05-24T03:38:07.437Z,19.95
2023-05-24T03:41:15.678Z,22.95
2023-05-24T03:44:21.416Z,21.25
2023-05-24T03:47:27.417Z,21.73
2023-05-24T03:50:33.020Z,27.58
2023-05-24T03:53:38.363Z,27.20
2023-05-24T03:56:44.184Z,25.23
2023-05-24T03:59:49.521Z,21.77
2023-05-24T04:02:56.330Z,28.80
2023-05-24T04:06:02.307Z,24.95
2023-05-24T04:09:10.355Z,21.42
2023-05-24T04:12:15.867Z,21.23
2023-05-24T04:15:21.642Z,26.88
2023-05-24T04:18:27.321Z,24.27
2023-05-24T04:21:35.229Z,27.58
2023-05-24T04:24:42.141Z,31.73
2023-05-24T04:27:49.101Z,29.27
2023-05-24T04:30:55.375Z,33.47
2023-05-24T04:34:00.956Z,28.25
2023-05-24T04:37:06.508Z,33.28
2023-05-24T04:40:12.457Z,25.02
2023-05-24T04:43:18.469Z,27.27
2023-05-24T04:46:23.743Z,24.85
2023-05-24T04:49:29.126Z,27.63
2023-05-24T04:52:36.934Z,24.88
2023-05-24T04:55:43.478Z,29.58
2023-05-24T04:58:49.446Z,28.23
2023-05-24T05:01:55.218Z,27.33
2023-05-24T05:05:01.148Z,31.38
2023-05-24T05:08:06.836Z,26.05
2023-05-24T05:11:13.158Z,23.60
2023-05-24T05:14:18.753Z,26.45
2023-05-24T05:17:24.379Z,32.25
2023-05-24T05:20:30.290Z,20.77
2023-05-24T05:23:36.619Z,22.85
2023-05-24T05:26:42.958Z,24.90
2023-05-24T05:29:48.679Z,22.23
2023-05-24T05:32:54.547Z,25.55
2023-05-24T05:36:00.904Z,30.27
2023-05-24T05:39:06.280Z,23.23
2023-05-24T05:42:11.997Z,24.50
2023-05-24T05:45:17.934Z,21.08
2023-05-24T05:48:23.921Z,21.13
2023-05-24T05:51:29.856Z,24.20
2023-05-24T05:54:36.244Z,25.00
2023-05-24T05:57:41.955Z,28.55
2023-05-24T06:00:47.636Z,28.25
2023-05-24T06:03:53.150Z,24.75
2023-05-24T06:06:59.020Z,27.30
2023-05-24T06:10:04.769Z,23.33
2023-05-24T06:13:10.670Z,23.92
2023-05-24T06:16:16.897Z,24.20
2023-05-24T06:19:22.464Z,21.77
2023-05-24T06:22:31.394Z,30.40
2023-05-24T06:25:38.882Z,23.48
2023-05-24T06:28:45.107Z,18.23
2023-05-24T06:31:51.024Z,28.55
2023-05-24T06:34:56.832Z,25.27
2023-05-24T06:38:02.336Z,22.02
2023-05-24T06:41:09.216Z,19.02
2023-05-24T06:44:15.229Z,24.95
2023-05-24T06:47:22.786Z,19.13
2023-05-24T06:50:28.683Z,25.88
2023-05-24T06:53:34.168Z,20.85
2023-05-24T06:56:40.186Z,23.67
2023-05-24T06:59:46.360Z,21.23
2023-05-24T07:02:52.237Z,22.95
2023-05-24T07:05:58.309Z,18.55
2023-05-24T07:09:05.303Z,25.10
2023-05-24T07:12:11.372Z,24.00
2023-05-24T07:15:17.012Z,23.73
2023-05-24T07:18:22.502Z,22.88
2023-05-24T07:21:28.015Z,25.33
2023-05-24T07:24:33.450Z,24.52
2023-05-24T07:27:39.277Z,22.27
2023-05-24T07:30:45.714Z,22.98
2023-05-24T07:33:51.333Z,20.42
2023-05-24T07:36:59.563Z,22.50
2023-05-24T07:40:06.969Z,24.90
2023-05-24T07:43:13.041Z,18.02
2023-05-24T07:46:18.870Z,15.77
2023-05-24T07:49:25.064Z,15.27
2023-05-24T07:52:31.545Z,15.40
2023-05-24T07:55:36.768Z,17.38
2023-05-24T07:58:42.198Z,17.27
2023-05-24T08:01:48.058Z,21.15
2023-05-24T08:04:53.882Z,17.05
2023-05-24T08:07:59.177Z,17.60
2023-05-24T08:11:04.311Z,14.88
2023-05-24T08:14:09.795Z,19.63
2023-05-24T08:17:15.212Z,16.92
2023-05-24T08:20:21.284Z,17.75
2023-05-24T08:23:27.241Z,19.02
2023-05-24T08:26:33.022Z,21.10
2023-05-24T08:29:39.579Z,17.98
2023-05-24T08:32:44.784Z,23.77
2023-05-24T08:35:53.343Z,20.27
2023-05-24T08:39:00.230Z,23.48
2023-05-24T08:42:09.273Z,18.42
2023-05-24T08:45:16.508Z,27.23
2023-05-24T08:48:22.734Z,20.38
2023-05-24T08:51:28.034Z,19.92
2023-05-24T08:54:38.079Z,18.52
2023-05-24T08:57:46.071Z,21.23
2023-05-24T09:00:51.658Z,21.17
2023-05-24T09:03:57.523Z,16.27
2023-05-24T09:07:03.283Z,9.98
2023-05-24T09:10:10.051Z,12.15
2023-05-24T09:13:16.296Z,14.02
2023-05-24T09:16:22.493Z,16.30
2023-05-24T09:19:29.282Z,13.88
2023-05-24T09:22:38.146Z,9.93
2023-05-24T09:25:47.213Z,16.80
2023-05-24T09:28:56.195Z,19.75
2023-05-24T09:32:02.625Z,9.75
2023-05-24T09:35:09.939Z,10.10
2023-05-24T09:38:19.751Z,10.27
2023-05-24T09:41:25.795Z,12.13
2023-05-24T09:44:31.455Z,10.73
2023-05-24T09:47:39.004Z,10.23
2023-05-24T09:50:47.996Z,10.25
2023-05-24T09:53:58.232Z,13.00
2023-05-24T09:57:05.192Z,16.00
2023-05-24T10:00:17.366Z,11.30
2023-05-24T10:03:25.544Z,17.20
2023-05-24T10:06:35.436Z,15.95
2023-05-24T10:09:40.994Z,14.30
2023-05-24T10:12:47.230Z,14.82
2023-05-24T10:15:52.523Z,15.68
2023-05-24T10:18:57.949Z,13.63
2023-05-24T10:22:07.727Z,13.85
2023-05-24T10:25:22.101Z,15.48
2023-05-24T10:28:28.600Z,14.73
2023-05-24T10:31:39.077Z,11.45
2023-05-24T10:37:52.768Z,12.90
2023-05-24T10:41:39.245Z,10.43
2023-05-24T10:44:45.356Z,13.43
2023-05-24T10:47:51.314Z,15.70
2023-05-24T10:50:57.650Z,14.23
2023-05-24T10:54:14.008Z,13.50
2023-05-24T10:57:25.110Z,11.13
2023-05-24T11:00:48.378Z,8.95
2023-05-24T11:03:54.073Z,8.35
2023-05-24T11:07:05.690Z,11.70
2023-05-24T11:10:17.213Z,8.43
2023-05-24T11:13:22.858Z,8.68
2023-05-24T11:16:40.686Z,9.20
2023-05-24T11:19:55.981Z,7.80
2023-05-24T11:23:12.339Z,16.05
2023-05-24T11:26:17.583Z,13.82
2023-05-24T11:29:23.473Z,9.68
2023-05-24T11:32:29.489Z,15.63
2023-05-24T11:35:34.600Z,14.55
2023-05-24T11:38:41.450Z,11.13
2023-05-24T11:41:48.024Z,11.25
2023-05-24T11:44:54.054Z,14.68
2023-05-24T11:48:05.511Z,9.40
2023-05-24T11:51:11.884Z,11.77
2023-05-24T11:54:19.405Z,10.10
2023-05-24T11:57:38.635Z,11.00
2023-05-24T12:00:44.816Z,9.23
2023-05-24T12:03:53.993Z,13.25
2023-05-24T12:07:00.024Z,9.57
2023-05-24T12:10:06.902Z,9.52
2023-05-24T12:13:26.299Z,11.57
2023-05-24T12:16:33.547Z,8.57
2023-05-24T12:19:39.789Z,9.40
2023-05-24T12:22:53.014Z,11.63
2023-05-24T12:26:02.411Z,13.18
2023-05-24T12:29:08.123Z,10.85
2023-05-24T12:32:14.821Z,12.18
2023-05-24T12:35:21.501Z,11.27
2023-05-24T12:38:27.008Z,8.30
2023-05-24T12:41:33.713Z,9.68
2023-05-24T12:44:40.204Z,8.82
2023-05-24T12:47:45.461Z,9.40
2023-05-24T12:50:51.513Z,10.68
2023-05-24T12:53:57.450Z,9.95
2023-05-24T12:57:03.604Z,10.00
2023-05-24T13:00:11.046Z,9.50
2023-05-24T13:03:17.875Z,8.93
2023-05-24T13:06:23.605Z,12.23
2023-05-24T13:09:29.438Z,7.15
2023-05-24T13:12:34.930Z,9.65
2023-05-24T13:15:42.183Z,9.90
2023-05-24T13:18:49.915Z,9.13
2023-05-24T13:21:55.832Z,8.43
2023-05-24T13:25:02.951Z,13.55
2023-05-24T13:28:08.478Z,9.73
2023-05-24T13:31:14.716Z,9.65
2023-05-24T13:34:20.447Z,7.47
2023-05-24T13:37:27.481Z,7.20
2023-05-24T13:40:33.207Z,8.30
2023-05-24T13:43:38.737Z,10.00
2023-05-24T13:46:44.794Z,5.93
2023-05-24T13:49:50.314Z,11.77
2023-05-24T13:52:56.538Z,7.95
2023-05-24T13:56:03.129Z,12.30
2023-05-24T14:17:50.979Z,11.00
2023-05-24T14:20:56.530Z,12.23
2023-05-24T14:24:01.964Z,8.13
2023-05-24T14:27:07.690Z,7.75
2023-05-24T14:30:13.157Z,7.28
2023-05-24T14:33:18.730Z,8.38
2023-05-24T14:36:24.452Z,9.98
2023-05-24T14:39:30.413Z,21.45
2023-05-24T14:42:36.345Z,7.95
2023-05-24T14:45:43.244Z,11.25
2023-05-24T14:48:49.195Z,7.15
2023-05-24T14:51:54.725Z,9.05
2023-05-24T14:55:00.377Z,10.52
2023-05-24T14:58:09.546Z,7.53
2023-05-24T15:01:15.120Z,7.60
2023-05-24T15:04:20.649Z,7.03
2023-05-24T15:07:26.670Z,7.10
2023-05-24T15:10:32.821Z,6.57
2023-05-24T15:13:38.749Z,8.10
2023-05-24T15:16:44.179Z,9.85
2023-05-24T15:19:49.627Z,8.77
2023-05-24T15:22:54.769Z,6.60
2023-05-24T15:26:00.603Z,9.05
2023-05-24T15:29:06.109Z,7.43
2023-05-24T15:32:11.794Z,6.55
2023-05-24T15:35:18.068Z,7.72
2023-05-24T15:38:23.575Z,11.85
2023-05-24T15:41:29.004Z,13.18
2023-05-24T15:44:34.073Z,14.73
2023-05-24T15:47:40.673Z,9.30
2023-05-24T15:53:54.455Z,8.32
2023-05-24T15:57:02.118Z,9.80
2023-05-24T16:00:08.327Z,8.77
2023-05-24T16:03:20.404Z,12.65
2023-05-24T16:06:26.515Z,8.88
2023-05-24T16:09:32.382Z,10.38
2023-05-24T16:12:37.533Z,8.27
2023-05-24T16:15:43.207Z,8.48
2023-05-24T16:18:48.623Z,9.32
2023-05-24T16:21:54.950Z,11.00
2023-05-24T16:25:01.122Z,16.45
2023-05-24T16:28:07.330Z,6.50
2023-05-24T16:31:13.533Z,10.65
2023-05-24T16:34:19.558Z,11.63
2023-05-24T16:37:25.488Z,7.90
2023-05-24T16:40:32.619Z,15.25
2023-05-24T16:43:38.157Z,10.77
2023-05-24T16:46:46.808Z,7.35
2023-05-24T16:49:52.738Z,11.05
2023-05-24T16:52:59.897Z,12.32
2023-05-24T16:56:05.994Z,6.72
2023-05-24T16:59:11.938Z,8.13
2023-05-24T17:02:17.666Z,8.73
2023-05-24T17:05:23.306Z,8.02
2023-05-24T17:08:30.669Z,9.13
2023-05-24T17:11:37.723Z,7.00
2023-05-24T17:14:44.195Z,8.80
2023-05-24T17:17:52.966Z,8.38
2023-05-24T17:21:04.773Z,11.70
2023-05-24T17:24:10.843Z,14.68
2023-05-24T17:27:19.957Z,8.80
2023-05-24T17:30:30.695Z,7.53
2023-05-24T17:33:38.199Z,8.35
2023-05-24T17:36:44.986Z,11.52
2023-05-24T17:39:53.570Z,11.35
2023-05-24T17:42:59.929Z,11.05
2023-05-24T17:46:09.764Z,10.10
2023-05-24T17:49:15.165Z,27.85
2023-05-24T17:52:20.671Z,9.50
2023-05-24T17:55:27.477Z,12.45
2023-05-24T17:58:37.165Z,9.63
2023-05-24T18:01:44.232Z,8.90
2023-05-24T18:04:53.038Z,7.60
2023-05-24T18:08:01.567Z,12.73
2023-05-24T18:11:11.610Z,13.45
2023-05-24T18:14:17.447Z,16.40
2023-05-24T18:17:23.273Z,14.20
2023-05-24T18:20:30.301Z,13.60
2023-05-24T18:23:40.423Z,8.80
2023-05-24T18:26:47.702Z,13.50
2023-05-24T18:29:54.316Z,10.20
2023-05-24T18:36:08.833Z,7.47
2023-05-24T18:39:14.254Z,8.45
2023-05-24T18:42:20.963Z,6.97
2023-05-24T18:45:26.285Z,7.90
2023-05-24T18:48:32.971Z,8.30
2023-05-24T18:51:41.581Z,14.40
2023-05-24T18:54:47.051Z,8.10
2023-05-24T18:57:55.435Z,7.18
2023-05-24T19:01:01.214Z,8.50
2023-05-24T19:04:08.718Z,8.05
2023-05-24T19:07:16.889Z,8.95
2023-05-24T19:10:24.205Z,11.07
2023-05-24T19:13:31.827Z,8.30
2023-05-24T19:16:38.366Z,9.55
2023-05-24T19:19:45.513Z,8.70
2023-05-24T19:22:51.462Z,9.00
2023-05-24T19:26:02.527Z,7.63
2023-05-24T19:29:10.588Z,5.60
2023-05-24T19:32:16.318Z,6.88
2023-05-24T19:35:23.161Z,9.23
2023-05-24T19:38:30.326Z,5.90
2023-05-24T19:41:41.595Z,8.85
2023-05-24T19:44:51.076Z,9.15
2023-05-24T19:47:56.961Z,7.40
2023-05-24T19:51:02.206Z,7.63
2023-05-24T19:54:09.498Z,8.38
2023-05-24T19:57:16.458Z,9.48
2023-05-24T20:00:24.722Z,9.52
2023-05-24T20:03:34.764Z,13.48
2023-05-24T20:06:43.314Z,9.25
2023-05-24T20:09:50.507Z,10.98
2023-05-24T20:12:57.557Z,9.50
2023-05-24T20:16:12.046Z,9.32
2023-05-24T20:19:21.847Z,12.05
2023-05-24T20:22:29.879Z,10.63
2023-05-24T20:25:37.310Z,10.82
2023-05-24T20:28:45.497Z,10.70
2023-05-24T20:31:51.416Z,8.30
2023-05-24T20:34:58.862Z,8.38
2023-05-24T20:38:04.580Z,14.10
2023-05-24T20:41:14.140Z,7.85
2023-05-24T20:44:20.154Z,7.25
2023-05-24T20:47:30.290Z,9.02
2023-05-24T20:50:37.946Z,8.25
2023-05-24T20:53:46.190Z,9.95
2023-05-24T20:56:52.168Z,6.60
2023-05-24T21:00:00.221Z,8.85
2023-05-24T21:03:11.650Z,9.18
2023-05-24T21:06:17.186Z,8.18
2023-05-24T21:09:22.767Z,8.85
2023-05-24T21:12:31.162Z,9.00
2023-05-24T21:15:38.535Z,7.68
2023-05-24T21:18:43.827Z,9.48
2023-05-24T21:21:49.132Z,8.25
2023-05-24T21:24:56.140Z,9.07
2023-05-24T21:28:02.915Z,16.27
2023-05-24T21:31:08.059Z,10.05
2023-05-24T21:34:13.605Z,10.48
2023-05-24T21:37:18.841Z,12.23
2023-05-24T21:40:24.572Z,10.35
2023-05-24T21:43:29.907Z,11.48
2023-05-24T21:46:36.653Z,9.07
2023-05-24T21:49:42.391Z,5.85
2023-05-24T21:52:47.894Z,10.30
2023-05-24T21:55:53.218Z,11.05
2023-05-24T21:58:58.738Z,6.05
2023-05-24T22:02:04.431Z,8.77
2023-05-24T22:05:10.413Z,11.43
2023-05-24T22:08:15.818Z,8.60
2023-05-24T22:11:21.704Z,11.13
2023-05-24T22:14:27.336Z,9.60
2023-05-24T22:17:33.314Z,10.00
2023-05-24T22:20:38.932Z,11.23
2023-05-24T22:23:44.309Z,12.38
2023-05-24T22:26:50.195Z,10.30
2023-05-24T22:29:56.012Z,9.13
2023-05-24T22:33:01.998Z,9.88
2023-05-24T22:36:07.413Z,6.65
2023-05-24T22:39:12.731Z,6.65
2023-05-24T22:42:18.227Z,7.00
2023-05-24T22:45:23.573Z,9.60
2023-05-24T22:48:28.891Z,5.68
2023-05-24T22:51:34.406Z,10.60
2023-05-24T22:54:39.857Z,6.32
2023-05-24T22:57:45.178Z,7.63
2023-05-24T23:00:51.636Z,9.27
2023-05-24T23:04:07.770Z,11.20
2023-05-24T23:07:23.099Z,8.02
2023-05-24T23:10:28.346Z,5.30
2023-05-24T23:13:36.183Z,7.75
2023-05-24T23:16:45.984Z,11.32
2023-05-24T23:19:51.606Z,8.73
2023-05-24T23:22:59.291Z,6.50
2023-05-24T23:26:04.568Z,6.32
2023-05-24T23:29:10.381Z,10.35
2023-05-24T23:32:15.631Z,9.77
2023-05-24T23:35:21.377Z,5.80
2023-05-24T23:38:26.642Z,7.30
2023-05-24T23:41:31.823Z,9.63
2023-05-24T23:44:37.404Z,8.77
2023-05-24T23:47:42.611Z,12.07
2023-05-24T23:50:54.000Z,9.63
2023-05-24T23:54:01.295Z,9.85
2023-05-24T23:57:07.912Z,7.22
